• Join FlightAware (Why Join?)
  • Login
  • US Flag 
10:25PM EST


 

Airport Tracker/Info


-or-


 

Live Flight TrackerFlight Track Log ✈ UPS2020 ✈ 27-Nov-2013 ✈ KDFW - KBOS

Flight Track Log - Related Links

Times and Time Zones

All times are in EST time to prevent confusion due to time zone crossing. See the UPS2020 flight status page for this flight to view local times or setup timezone preferences in your user account.

Time Position Orientation Groundspeed Altitude Reporting Facility
EST Latitude Longitude Course Direction KTS MPH feet Rate Location/Type
03:20PM 32.9000 -97.0333 59° Northeast 147 169 1,600  Level Dallas / Fort Worth TRACON
03:20PM 32.9167 -97.0333 360° North 166 191 2,400 2,400 Climbing Dallas / Fort Worth TRACON
03:21PM 32.9833 -97.0333 360° North 221 254 5,000 2,820 Climbing Dallas / Fort Worth TRACON
03:22PM 32.9860 -96.8919 77° East  Level Estimated
03:22PM 33.0500 -97.0167 12° North 248 285 8,100  Level Dallas / Fort Worth TRACON
03:23PM 33.0303 -96.8080 68° East  Level Estimated
03:23PM 33.0833 -96.9500 59° Northeast 302 348 10,000  Level Dallas / Fort Worth TRACON
03:24PM 32.9576 -96.7598 151° Southeast  Level FlightAware Approximate
03:25PM 33.0021 -96.6761 59° Northeast  Level Estimated
03:25PM 33.0550 -96.7597 100° East 389 448 10,000  Level Fort Worth Center
03:26PM 33.0425 -96.6350 97° East 381 438 11,800 2,760 Climbing Fort Worth Center
03:27PM 33.0669 -96.4975 78° East 390 449 15,800 3,600 Climbing Fort Worth Center
03:28PM 33.0933 -96.3664 76° East 404 465 19,300 3,180 Climbing Fort Worth Center
03:29PM 33.1194 -96.2317 77° East 416 479 22,400 2,400 Climbing Fort Worth Center
03:31PM 33.1650 -95.9847 78° East 443 510 26,100 2,040 Climbing Memphis Center
03:32PM 33.1964 -95.8275 77° East 478 550 28,200 2,160 Climbing Memphis Center
03:33PM 33.2278 -95.6681 77° East 493 567 30,600 2,460 Climbing Memphis Center
03:34PM 33.2639 -95.4739 77° East 499 574 33,300 2,160 Climbing Memphis Center
03:35PM 33.2931 -95.3108 78° East 500 575 35,100 1,440 Climbing Memphis Center
03:36PM 33.3236 -95.1478 77° East 503 579 36,300 900 Climbing Memphis Center
03:37PM 33.3525 -94.9831 78° East 506 582 37,000 300 Climbing Memphis Center
03:38PM 33.3808 -94.8256 78° East 492 566 37,000  Level Memphis Center
03:39PM 33.4097 -94.6681 78° East 487 560 37,000  Level Memphis Center
03:40PM 33.4442 -94.4744 78° East 493 567 37,000  Level Memphis Center
03:41PM 33.4728 -94.3125 78° East 495 570 37,000  Level Memphis Center
03:42PM 33.5014 -94.1478 78° East 499 574 37,000  Level Memphis Center
03:43PM 33.5472 -93.9894 71° East 497 572 37,000  Level Memphis Center
03:44PM 33.6047 -93.8381 65° Northeast 492 566 37,000  Level Memphis Center
03:46PM 33.6861 -93.6283 65° Northeast 491 565 37,000  Level Fort Worth Center
03:46PM 33.7206 -93.5397 65° Northeast 491 565 37,000  Level Memphis Center
03:47PM 33.7769 -93.3917 65° Northeast 488 562 37,000  Level Memphis Center
03:48PM 33.8442 -93.2139 65° Northeast 487 560 37,000  Level Memphis Center
03:49PM 33.9011 -93.0675 65° Northeast 486 559 37,000  Level Memphis Center
03:50PM 33.9561 -92.9208 66° East 482 555 37,000  Level Memphis Center
03:51PM 34.0119 -92.7725 66° East 484 557 37,000  Level Memphis Center
03:52PM 34.0708 -92.6147 66° East 487 560 37,000  Level Memphis Center
03:53PM 34.1264 -92.4669 66° East 487 560 37,000  Level Memphis Center
03:55PM 34.1828 -92.3172 65° Northeast 491 565 37,000  Level Memphis Center
03:56PM 34.2386 -92.1650 66° East 495 570 37,000  Level Memphis Center
03:57PM 34.3044 -91.9828 66° East 496 571 37,000  Level Memphis Center
03:58PM 34.3597 -91.8308 66° East 497 572 37,000  Level Memphis Center
03:59PM 34.4197 -91.6717 65° Northeast 499 574 37,000  Level Memphis Center
04:00PM 34.4753 -91.5181 66° East 496 571 37,000  Level Memphis Center
04:01PM 34.5300 -91.3631 67° East 495 570 37,000  Level Memphis Center
04:02PM 34.5853 -91.2106 66° East 492 566 37,000  Level Memphis Center
04:03PM 34.6406 -91.0550 67° East 496 571 37,000  Level Memphis Center
04:04PM 34.7033 -90.8761 67° East 492 566 37,000  Level Memphis Center
04:05PM 34.7575 -90.7225 67° East 489 563 37,000  Level Memphis Center
04:06PM 34.8108 -90.5714 67° East 485 558 37,000  Level Memphis Center
04:07PM 34.8639 -90.4172 67° East 486 559 37,000  Level Memphis Center
04:08PM 34.9175 -90.2653 67° East 485 558 37,000  Level Memphis Center
04:09PM 34.9714 -90.1106 67° East 486 559 37,000  Level Memphis Center
04:10PM 35.0403 -89.9692 59° Northeast 478 550 37,000  Level Memphis Center
04:11PM 35.1478 -89.8850 33° Northeast 452 520 37,000  Level Memphis Center
04:12PM 35.2561 -89.8044 31° Northeast 449 517 37,000  Level Memphis Center
04:13PM 35.3839 -89.7117 31° Northeast 451 519 37,000  Level Memphis Center
04:14PM 35.4939 -89.6308 31° Northeast 453 521 37,000  Level Memphis Center
04:15PM 35.6039 -89.5494 31° Northeast 456 525 37,000  Level Memphis Center
04:16PM 35.7183 -89.4639 31° Northeast 456 525 37,000  Level Memphis Center
04:17PM 35.8283 -89.3828 31° Northeast 459 528 37,000  Level Memphis Center
04:18PM 35.9369 -89.3011 31° Northeast 459 528 37,000  Level Memphis Center
04:19PM 36.0450 -89.2194 31° Northeast 457 526 37,000  Level Memphis Center
04:20PM 36.1536 -89.1378 31° Northeast 460 529 37,000  Level Memphis Center
04:21PM 36.2694 -89.0097 42° Northeast 472 543 37,000  Level Memphis Center
04:22PM 36.3650 -88.9008 43° Northeast 472 543 37,000  Level Memphis Center
04:23PM 36.4603 -88.7925 42° Northeast 469 540 37,000  Level Memphis Center
04:25PM 36.5558 -88.6828 43° Northeast 469 540 37,000  Level Memphis Center
04:26PM 36.6519 -88.5728 43° Northeast 469 540 37,000  Level Memphis Center
04:27PM 36.7644 -88.4408 43° Northeast 465 535 37,000  Level Memphis Center
04:28PM 36.8594 -88.3308 43° Northeast 465 535 37,000  Level Memphis Center
04:29PM 36.9531 -88.2208 43° Northeast 463 533 37,000  Level Memphis Center
04:30PM 37.0472 -88.1108 43° Northeast 463 533 37,000  Level Memphis Center
04:31PM 37.1411 -87.9994 43° Northeast 463 533 37,000  Level Memphis Center
04:32PM 37.2511 -87.8703 43° Northeast 460 529 37,000  Level Memphis Center
04:33PM 37.3442 -87.7589 44° Northeast 458 527 37,000  Level Memphis Center
04:34PM 37.4364 -87.6500 43° Northeast 452 520 37,000  Level Memphis Center
04:35PM 37.5289 -87.5394 43° Northeast 452 520 37,000  Level Memphis Center
04:36PM 37.6211 -87.4281 44° Northeast 454 522 37,000  Level Memphis Center
04:37PM 37.7117 -87.3189 44° Northeast 448 516 37,000  Level Memphis Center
04:38PM 37.8497 -87.1519 44° Northeast 445 512 37,000  Level Indianapolis Center
04:39PM 37.9403 -87.0433 43° Northeast 448 516 37,000  Level Indianapolis Center
04:40PM 38.0306 -86.9339 44° Northeast 449 517 37,000  Level Indianapolis Center
04:41PM 38.1197 -86.8244 44° Northeast 451 519 37,000  Level Indianapolis Center
04:43PM 38.2097 -86.7136 44° Northeast 453 521 37,000  Level Indianapolis Center
04:44PM 38.3183 -86.5811 44° Northeast 455 524 37,000  Level Indianapolis Center
04:45PM 38.4083 -86.4681 45° Northeast 454 522 37,000  Level Indianapolis Center
04:46PM 38.4994 -86.3561 44° Northeast 454 522 37,000  Level Indianapolis Center
04:47PM 38.5903 -86.2419 44° Northeast 456 525 37,000  Level Indianapolis Center
04:48PM 38.6822 -86.1264 44° Northeast 461 531 37,000  Level Indianapolis Center
04:49PM 38.7753 -86.0119 44° Northeast 462 532 37,000  Level Indianapolis Center
04:50PM 38.8717 -85.8886 45° Northeast 460 529 37,000  Level Indianapolis Center
04:51PM 38.9633 -85.7747 44° Northeast 461 531 37,000  Level Indianapolis Center
04:52PM 39.0725 -85.6350 45° Northeast 465 535 37,000  Level Indianapolis Center
04:53PM 39.1625 -85.5183 45° Northeast 465 535 37,000  Level Indianapolis Center
04:54PM 39.2547 -85.4025 44° Northeast 465 535 37,000  Level Indianapolis Center
04:55PM 39.3453 -85.2853 45° Northeast 466 536 37,000  Level Indianapolis Center
04:56PM 39.4369 -85.1661 45° Northeast 469 540 37,000  Level Indianapolis Center
04:57PM 39.5272 -85.0478 45° Northeast 468 539 37,000  Level Indianapolis Center
04:58PM 39.6150 -84.8756 56° Northeast 479 551 37,000  Level Indianapolis Center
04:59PM 39.6944 -84.7203 56° Northeast 486 559 37,000  Level Indianapolis Center
05:00PM 39.7706 -84.5775 55° Northeast 484 557 37,000  Level Indianapolis Center
05:01PM 39.8414 -84.4306 58° Northeast 481 554 37,000  Level Indianapolis Center
05:02PM 39.9133 -84.2831 58° Northeast 481 554 37,000  Level Indianapolis Center
05:03PM 39.9836 -84.1336 58° Northeast 483 556 37,000  Level Indianapolis Center
05:04PM 40.0558 -83.9828 58° Northeast 486 559 37,000  Level Indianapolis Center
05:05PM 40.1272 -83.8319 58° Northeast 486 559 37,000  Level Indianapolis Center
05:06PM 40.1997 -83.6789 58° Northeast 491 565 37,000  Level Indianapolis Center
05:07PM 40.2861 -83.4944 58° Northeast 492 566 37,000  Level Indianapolis Center
05:08PM 40.3583 -83.3394 59° Northeast 495 570 37,000  Level Indianapolis Center
05:09PM 40.4306 -83.1831 59° Northeast 499 574 37,000  Level Indianapolis Center
05:10PM 40.5025 -83.0283 59° Northeast 497 572 37,000  Level Indianapolis Center
05:11PM 40.5761 -82.8497 61° Northeast 503 579 37,000  Level Indianapolis Center
05:12PM 40.6336 -82.6819 66° East 502 578 37,000  Level Indianapolis Center
05:13PM 40.6953 -82.5139 64° Northeast 505 581 37,000  Level Indianapolis Center
05:15PM 40.7556 -82.3461 65° Northeast 504 580 37,000  Level Indianapolis Center
05:16PM 40.8156 -82.1783 65° Northeast 503 579 37,000  Level Indianapolis Center
05:17PM 40.8742 -82.0092 65° Northeast 503 579 37,000  Level Indianapolis Center
05:18PM 40.9417 -81.8125 66° East 502 578 37,000  Level Indianapolis Center
05:19PM 40.9989 -81.6425 66° East 506 582 37,000  Level Indianapolis Center
05:20PM 41.0564 -81.4742 66° East 505 581 37,000  Level Indianapolis Center
05:21PM 41.1125 -81.3044 66° East 504 580 37,000  Level Indianapolis Center
05:22PM 41.1703 -81.1328 66° East 508 585 37,000  Level Indianapolis Center
05:23PM 41.2556 -80.8756 66° East 507 583 37,000  Level Cleveland Center
05:24PM 41.3133 -80.7008 66° East 511 588 37,000  Level Cleveland Center
05:25PM 41.3711 -80.5258 66° East 513 590 37,000  Level Cleveland Center
05:26PM 41.4283 -80.3514 66° East 511 588 37,000  Level Cleveland Center
05:27PM 41.4792 -80.1875 67° East 516 594 37,000  Level Cleveland Center
05:28PM 41.5453 -79.9739 67° East 517 595 37,000  Level Cleveland Center
05:29PM 41.5825 -79.7908 75° East 515 593 37,000  Level Cleveland Center
05:30PM 41.6222 -79.6072 74° East 515 593 37,000  Level Cleveland Center
05:31PM 41.6639 -79.4247 73° East 514 592 37,000  Level Cleveland Center
05:32PM 41.7042 -79.2531 73° East 515 593 37,000  Level Cleveland Center
05:33PM 41.7542 -79.0319 73° East 518 596 37,000 -4,200 Level Cleveland Center
05:39PM 28.5556 -81.3160 73° East 298 343 7,700 -4,440 Descending FlightAware ADS-B
05:40PM 28.5738 -81.3147 North 292 336 9,000 4,080 Climbing FlightAware ADS-B
05:40PM 28.6266 -81.3092 North 316 364 11,100 3,000 Climbing FlightAware ADS-B
05:41PM 28.6753 -81.3043 North 369 425 12,100 3,060 Climbing FlightAware ADS-B
05:41PM 28.7417 -81.2982 North 392 451 14,600 3,300 Climbing FlightAware ADS-B
05:42PM 28.8024 -81.2960 North 403 464 15,900 1,320 Climbing FlightAware ADS-B
05:42PM 28.8541 -81.3104 346° North 397 457 16,000 2,640 Climbing FlightAware ADS-B
05:44PM 29.0009 -81.3573 344° North 412 474 20,700 6,240 Climbing FlightAware ADS-B
05:46PM 42.2167 -76.7731 344° North 513 590 37,000 2,100 Climbing Cleveland Center
05:51PM 42.4129 -75.7302 344° North 491 565 37,000  Level FlightAware ADS-B (KWWD)
05:52PM 42.4449 -75.5537 76° East 483 556 37,000  Level FlightAware ADS-B (KWWD)
05:56PM 42.5732 -74.8315 76° East 483 556 37,000  Level FlightAware ADS-B (KWWD)
05:57PM 42.5972 -74.6928 76° East 491 565 37,000  Level Boston Center
05:58PM 42.6344 -74.4772 77° East 494 568 37,000  Level Boston Center
05:59PM 42.6647 -74.3006 77° East 477 549 37,000  Level Boston Center
06:00PM 42.6931 -74.1300 77° East 463 533 37,000 -540 Level Boston Center
06:07PM 42.6796 -73.1824 77° East 370 426 33,200 -720 Descending FlightAware ADS-B
06:08PM 42.6642 -73.0458 99° East 353 406 31,700 -1,140 Descending FlightAware ADS-B
06:09PM 42.6486 -72.9111 99° East 344 396 30,900 -1,320 Descending FlightAware ADS-B
06:09PM 42.6390 -72.8289 99° East 343 395 29,900 -1,380 Descending FlightAware ADS-B
06:10PM 42.6305 -72.7558 99° East 338 389 29,200 -720 Descending FlightAware ADS-B
06:11PM 42.6202 -72.6710 99° East 342 394 29,000 -240 Descending FlightAware ADS-B
06:11PM 42.6102 -72.5874 99° East 352 405 28,900 -1,080 Descending FlightAware ADS-B (KSNC)
06:12PM 42.6027 -72.5257 99° East 374 430 27,800 -2,880 Descending FlightAware ADS-B (KSNC)
06:12PM 42.5924 -72.4421 99° East 402 463 25,900 -2,820 Descending FlightAware ADS-B
06:13PM 42.5798 -72.3282 98° East 398 458 24,100 -2,400 Descending FlightAware ADS-B
06:13PM 42.5813 -72.2754 88° East 417 480 23,300 -2,820 Descending FlightAware ADS-B
06:14PM 42.5925 -72.2223 74° East 431 496 22,200 -3,360 Descending FlightAware ADS-B
06:14PM 42.5960 -72.2073 72° East 419 482 21,800 -3,420 Descending FlightAware ADS-B
06:14PM 42.5986 -72.1833 82° East 392 451 21,300 -2,940 Descending FlightAware ADS-B (KSNC)
06:14PM 42.5928 -72.1436 101° East 339 390 20,400 -2,940 Descending FlightAware ADS-B
06:14PM 42.5840 -72.1240 121° Southeast 316 364 19,900 -2,880 Descending FlightAware ADS-B (KSNC)
06:15PM 42.5715 -72.1018 127° Southeast 306 352 19,300 -3,000 Descending FlightAware ADS-B
06:15PM 42.5432 -72.0467 125° Southeast 322 371 17,500 -3,180 Descending FlightAware ADS-B
06:15PM 42.5385 -72.0239 106° East 356 410 16,900 -3,000 Descending FlightAware ADS-B
06:15PM 42.5378 -72.0158 96° East 366 421 16,700 -1,620 Descending FlightAware ADS-B (KSNC)
06:16PM 42.5365 -71.9798 93° East 363 418 16,400 -1,380 Descending FlightAware ADS-B (KBOS)
06:16PM 42.5327 -71.9091 94° East 360 414 15,700 -1,440 Descending FlightAware ADS-B
06:16PM 42.5316 -71.8938 96° East 361 415 15,500 -1,980 Descending FlightAware ADS-B (KBOS)
06:17PM 42.5273 -71.8410 96° East 360 414 14,700 -1,980 Descending FlightAware ADS-B
06:17PM 42.5207 -71.7724 97° East 359 413 13,800 -1,860 Descending FlightAware ADS-B
06:18PM 42.5118 -71.6840 98° East 346 398 12,500 -1,860 Descending FlightAware ADS-B
06:18PM 42.5093 -71.6581 97° East 337 388 12,200 -1,140 Descending FlightAware ADS-B (KBOS)
06:19PM 42.5067 -71.6316 98° East 335 386 11,600 -660 Descending FlightAware ADS-B (KBOS)
06:19PM 42.4953 -71.5158 98° East 336 387 11,500 -480 Descending FlightAware ADS-B (KBOS)
06:19PM 42.4932 -71.4939 97° East 333 383 11,300 -1,440 Descending FlightAware ADS-B
06:20PM 42.4912 -71.4741 98° East 333 383 11,000 -1,500 Descending FlightAware ADS-B (KBOS)
06:20PM 42.4892 -71.4524 97° East 329 379 10,800 -480 Descending FlightAware ADS-B
06:20PM 42.4838 -71.3945 97° East 300 345 10,700 -480 Descending FlightAware ADS-B (KBOS)
06:20PM 42.4817 -71.3729 97° East 299 344 10,500 -1,260 Descending FlightAware ADS-B
06:21PM 42.4765 -71.3171 97° East 301 346 9,900 -1,320 Descending FlightAware ADS-B
06:21PM 42.4731 -71.2809 97° East 304 350 9,400 -1,320 Descending FlightAware ADS-B
06:22PM 42.4703 -71.2525 98° East 310 357 9,100 -900 Descending FlightAware ADS-B (KBOS)
06:22PM 42.4669 -71.2160 97° East 310 357 8,900 -840 Descending FlightAware ADS-B
06:22PM 42.4633 -71.1777 97° East 308 354 8,600 -720 Descending FlightAware ADS-B
06:22PM 42.4624 -71.1680 97° East 307 353 8,600 -600 Level FlightAware ADS-B
06:23PM 42.4598 -71.1397 97° East 305 351 8,400 -780 Descending FlightAware ADS-B
06:23PM 42.4570 -71.1091 97° East 302 348 8,200 -780 Descending FlightAware ADS-B (KBOS)
06:23PM 42.4544 -71.0805 97° East 297 342 8,000 -780 Descending FlightAware ADS-B
06:23PM 42.4521 -71.0552 97° East 289 333 7,800 -720 Descending FlightAware ADS-B (KBOS)
06:24PM 42.4485 -71.0149 97° East 281 323 7,600 -480 Descending FlightAware ADS-B (KBOS)
06:24PM 42.4441 -70.9811 100° East 277 319 7,500 -480 Descending FlightAware ADS-B (KBOS)
06:24PM 42.4442 -70.9435 90° East 272 313 7,300 -480 Descending FlightAware ADS-B (KBOS)
06:25PM 42.4482 -70.9126 80° East 253 291 7,200 -780 Descending FlightAware ADS-B (KBOS)
06:25PM 42.4530 -70.8804 78° East 239 275 6,800 -1,200 Descending FlightAware ADS-B (KBOS)
06:25PM 42.4578 -70.8501 78° East 232 267 6,400 -1,140 Descending FlightAware ADS-B (KBOS)
06:26PM 42.4602 -70.8352 78° East 232 267 6,200 -1,260 Descending FlightAware ADS-B
06:26PM 42.4644 -70.8081 78° East 230 265 5,800 -840 Descending FlightAware ADS-B (KBOS)
06:26PM 42.4696 -70.7748 78° East 229 264 5,600 -480 Descending FlightAware ADS-B
06:26PM 42.4703 -70.7707 78° East 229 264 5,600  Level FlightAware ADS-B
06:27PM 42.4736 -70.7519 77° East 229 264 5,600  Level FlightAware ADS-B (KBOS)
06:27PM 42.4789 -70.7217 77° East 228 262 5,600 120 Level FlightAware ADS-B (KBOS)
06:27PM 42.4836 -70.6943 77° East 229 264 5,700  Climbing FlightAware ADS-B
06:28PM 42.4883 -70.6672 77° East 227 261 5,600 -180 Descending FlightAware ADS-B (KBOS)
06:28PM 42.4937 -70.6348 77° East 227 261 5,600  Level FlightAware ADS-B (KBOS)
06:28PM 42.4979 -70.6103 77° East 226 260 5,600  Level FlightAware ADS-B
06:29PM 42.5018 -70.5872 77° East 228 262 5,600  Level FlightAware ADS-B (KBOS)
06:29PM 42.5061 -70.5609 78° East 233 268 5,600  Level FlightAware ADS-B (KBOS)
06:29PM 42.5112 -70.5297 77° East 231 266 5,600 -300 Level FlightAware ADS-B (KBOS)
06:30PM 42.5153 -70.4954 81° East 231 266 5,400 -900 Descending FlightAware ADS-B (KBOS)
06:30PM 42.5121 -70.4816 108° East 220 253 5,100 -1,320 Descending FlightAware ADS-B (KBOS)
06:30PM 42.5070 -70.4727 128° Southeast 211 243 5,000 -1,200 Descending FlightAware ADS-B (KBOS)
06:30PM 42.4973 -70.4655 151° Southeast 198 228 4,700 -1,140 Descending FlightAware ADS-B (KBOS)
06:30PM 42.4888 -70.4626 166° South 190 219 4,600 -240 Descending FlightAware ADS-B
06:31PM 42.4715 -70.4588 171° South 182 209 4,600  Level FlightAware ADS-B (KBOS)
06:31PM 42.4651 -70.4610 194° South 171 197 4,600 600 Level FlightAware ADS-B
06:31PM 42.4640 -70.4616 203° Southwest 176 203 4,700 420 Climbing FlightAware ADS-B (KBOS)
06:31PM 42.4582 -70.4689 223° Southwest 175 201 4,700  Level FlightAware ADS-B (KBOS)
06:31PM 42.4541 -70.4797 243° Southwest 175 201 4,700 -240 Level FlightAware ADS-B (KBOS)
06:31PM 42.4495 -70.4941 246° West 176 203 4,600 -600 Descending FlightAware ADS-B
06:32PM 42.4449 -70.5110 250° West 177 204 4,400 -900 Descending FlightAware ADS-B (KBOS)
06:32PM 42.4402 -70.5300 252° West 179 206 4,100 -900 Descending FlightAware ADS-B (KBOS)
06:32PM 42.4380 -70.5403 254° West 178 205 4,000 -900 Descending FlightAware ADS-B
06:32PM 42.4368 -70.5463 255° West 178 205 3,900 -780 Descending FlightAware ADS-B
06:33PM 42.4319 -70.5765 257° West 180 207 3,600 -420 Descending FlightAware ADS-B (KBOS)
06:33PM 42.4285 -70.5973 258° West 176 203 3,600  Level FlightAware ADS-B (KBOS)
06:33PM 42.4245 -70.6207 257° West 178 205 3,600  Level FlightAware ADS-B (KBOS)
06:34PM 42.4210 -70.6414 257° West 179 206 3,600  Level FlightAware ADS-B (KBOS)
06:34PM 42.4173 -70.6631 257° West 177 204 3,600  Level FlightAware ADS-B (KBOS)
06:34PM 42.4168 -70.6660 258° West 174 200 3,600  Level FlightAware ADS-B
06:34PM 42.4138 -70.6837 257° West 177 204 3,600  Level FlightAware ADS-B (KBOS)
06:35PM 42.4096 -70.7074 256° West 178 205 3,600  Level FlightAware ADS-B (KBOS)
06:35PM 42.4083 -70.7142 256° West 177 204 3,600  Level FlightAware ADS-B
06:35PM 42.4037 -70.7401 257° West 180 207 3,600  Level FlightAware ADS-B (KBOS)
06:36PM 42.3997 -70.7635 257° West 176 203 3,600  Level FlightAware ADS-B
06:36PM 42.3950 -70.7900 257° West 179 206 3,600 -420 Level FlightAware ADS-B (KBOS)
06:36PM 42.3912 -70.8118 257° West 184 212 3,300 -900 Descending FlightAware ADS-B (KBOS)
06:37PM 42.3845 -70.8501 257° West 175 201 2,800 -900 Descending FlightAware ADS-B (KBOS)
06:37PM 42.3809 -70.8706 257° West 156 180 2,500 -960 Descending FlightAware ADS-B (KBOS)
06:38PM 42.3778 -70.8880 257° West 133 153 2,200 -900 Descending FlightAware ADS-B (KBOS)
06:38PM 42.3749 -70.9049 257° West 127 146 1,900 -720 Descending FlightAware ADS-B (KBOS)
06:38PM 42.3721 -70.9207 256° West 129 148 1,700 -600 Descending FlightAware ADS-B (KBOS)
06:39PM 42.3693 -70.9363 257° West 123 142 1,500 -720 Descending FlightAware ADS-B (KBOS)
06:39PM 42.3681 -70.9435 257° West 124 143 900 -660 Descending FlightAware ADS-B (KBOS)
06:40PM 42.3569 -71.0017 257° West 125 144 400 -600 Descending Boston Center